Overview Statistics Trail Chart Weather Telemetry Raw packets
 

This is the latest recevied weather packets stored in our database for station/object 9M2SPN-3. If no packets are shown the sender has not sent any weather packets the latest 10 day(s).

<< 1 2 3 4 >>
Time Temp. Humidity Pressure Rain* Wind** Luminosity Snow
1788613246 37.22° C 52% 1008.4 hPa - - - -
1788611446 37.78° C 52% 1007.8 hPa - - - -
1788609645 38.33° C 51% 1007.5 hPa - - - -
1788607844 38.33° C 50% 1007 hPa - - - -
1788606077 38.89° C 50% 1006.5 hPa - - - -
1788604242 39.44° C 46% 1006.3 hPa - - - -
1788602442 39.44° C 45% 1006 hPa - - - -
1788600641 40.56° C 43% 1006 hPa - - - -
1788598840 40.56° C 43% 1005.9 hPa - - - -
1788597039 41.11° C 43% 1006 hPa - - - -
1788595238 41.11° C 43% 1006.2 hPa - - - -
1788593438 41.11° C 42% 1006.4 hPa - - - -
1788591637 41.67° C 40% 1006.7 hPa - - - -
1788589836 41.11° C 40% 1007.2 hPa - - - -
1788588035 41.67° C 41% 1007.9 hPa - - - -
1788586234 41.67° C 42% 1008.4 hPa - - - -
1788584433 41.67° C 42% 1009 hPa - - - -
1788582632 41.11° C 43% 1009.6 hPa - - - -
1788580831 40.56° C 44% 1009.8 hPa - - - -
1788579030 40° C 47% 1010.2 hPa - - - -
1788577230 39.44° C 47% 1010.5 hPa - - - -
1788575429 39.44° C 48% 1010.7 hPa - - - -
1788573628 38.89° C 48% 1010.7 hPa - - - -
1788571827 38.33° C 49% 1010.6 hPa - - - -
1788570026 37.78° C 50% 1010.4 hPa - - - -

* Rain since midnight (hover to see other rain measurements)
** Current wind speed in m/s (hover to see current wind gust speed)